createdAt,value
2023-09-23T00:01:21.111Z,40.3
2023-09-23T00:04:21.669Z,38.3
2023-09-23T00:07:21.017Z,38.9
2023-09-23T00:10:21.052Z,33.9
2023-09-23T00:13:21.067Z,33.1
2023-09-23T00:16:21.174Z,34.4
2023-09-23T00:19:21.314Z,36.1
2023-09-23T00:22:20.929Z,38.9
2023-09-23T00:25:21.047Z,34.7
2023-09-23T00:28:21.055Z,31.7
2023-09-23T00:31:21.319Z,35.6
2023-09-23T00:34:21.185Z,37.8
2023-09-23T00:37:21.122Z,31.9
2023-09-23T00:40:21.019Z,33.3
2023-09-23T00:43:21.134Z,31.1
2023-09-23T00:46:21.206Z,36.7
2023-09-23T00:49:21.164Z,34.4
2023-09-23T00:52:21.008Z,30.0
2023-09-23T00:55:20.921Z,28.9
2023-09-23T00:58:22.490Z,32.5
2023-09-23T01:01:21.237Z,33.1
2023-09-23T01:04:22.274Z,34.2
2023-09-23T01:07:20.949Z,33.6
2023-09-23T01:10:21.159Z,31.7
2023-09-23T01:13:20.973Z,35.8
2023-09-23T01:16:21.304Z,43.6
2023-09-23T01:19:21.484Z,38.1
2023-09-23T01:22:20.950Z,34.4
2023-09-23T01:25:21.024Z,36.9
2023-09-23T01:28:20.968Z,39.7
2023-09-23T01:31:21.196Z,37.5
2023-09-23T01:34:21.239Z,41.1
2023-09-23T01:37:21.005Z,45.6
2023-09-23T01:40:21.112Z,171.4
2023-09-23T01:43:21.163Z,59.3
2023-09-23T01:46:21.522Z,45.4
2023-09-23T01:49:21.069Z,50.9
2023-09-23T01:52:21.008Z,47.5
2023-09-23T01:55:21.052Z,51.6
2023-09-23T01:58:21.405Z,51.4
2023-09-23T02:01:21.797Z,52.9
2023-09-23T02:04:21.452Z,55.3
2023-09-23T02:07:21.038Z,52.5
2023-09-23T02:10:21.034Z,52.5
2023-09-23T02:13:21.038Z,53.7
2023-09-23T02:16:21.048Z,54.2
2023-09-23T02:19:21.138Z,56.5
2023-09-23T02:22:21.003Z,63.3
2023-09-23T02:25:21.062Z,60.0
2023-09-23T02:28:21.106Z,59.9
2023-09-23T02:31:21.355Z,61.0
2023-09-23T02:34:21.092Z,62.8
2023-09-23T02:37:21.038Z,62.4
2023-09-23T02:40:21.030Z,61.3
2023-09-23T02:43:21.053Z,70.3
2023-09-23T02:46:21.268Z,65.9
2023-09-23T02:49:21.293Z,66.9
2023-09-23T02:52:21.152Z,64.5
2023-09-23T02:55:21.400Z,61.9
2023-09-23T02:58:21.855Z,64.0
2023-09-23T03:01:21.287Z,67.1
2023-09-23T03:04:21.791Z,64.4
2023-09-23T03:07:21.225Z,65.4
2023-09-23T03:10:21.379Z,62.8
2023-09-23T03:13:21.122Z,61.6
2023-09-23T03:16:21.046Z,64.4
2023-09-23T03:19:21.807Z,63.8
2023-09-23T03:22:21.036Z,64.0
2023-09-23T03:25:21.076Z,62.8
2023-09-23T03:28:21.231Z,63.7
2023-09-23T03:31:23.528Z,64.7
2023-09-23T03:34:21.099Z,63.7
2023-09-23T03:37:28.014Z,62.7
2023-09-23T03:40:20.995Z,62.4
2023-09-23T03:43:21.127Z,63.8
2023-09-23T03:46:21.285Z,64.1
2023-09-23T03:49:21.392Z,64.2
2023-09-23T03:52:21.203Z,60.6
2023-09-23T03:55:20.967Z,63.0
2023-09-23T03:58:20.989Z,62.1
2023-09-23T04:01:21.195Z,65.1
2023-09-23T04:04:21.169Z,63.4
2023-09-23T04:07:21.012Z,62.8
2023-09-23T04:10:21.140Z,57.7
2023-09-23T04:13:21.155Z,63.1
2023-09-23T04:16:21.102Z,60.7
2023-09-23T04:19:21.722Z,59.2
2023-09-23T04:22:21.468Z,62.3
2023-09-23T04:25:21.015Z,58.5
2023-09-23T04:28:21.150Z,59.6
2023-09-23T04:31:21.189Z,59.3
2023-09-23T04:34:21.271Z,62.0
2023-09-23T04:37:21.027Z,64.2
2023-09-23T04:40:21.224Z,59.1
2023-09-23T04:43:21.018Z,61.7
2023-09-23T04:46:21.212Z,58.9
2023-09-23T04:49:21.274Z,57.9
2023-09-23T04:52:21.181Z,62.6
2023-09-23T04:55:21.153Z,61.4
2023-09-23T04:58:20.940Z,60.3
2023-09-23T05:01:21.310Z,58.4
2023-09-23T05:04:21.191Z,65.2
2023-09-23T05:07:21.906Z,61.9
2023-09-23T05:10:20.993Z,65.4
2023-09-23T05:13:21.224Z,60.7
2023-09-23T05:16:21.901Z,61.4
2023-09-23T05:19:21.580Z,61.4
2023-09-23T05:22:21.022Z,58.2
2023-09-23T05:25:21.386Z,61.0
2023-09-23T05:28:21.304Z,59.8
2023-09-23T05:31:21.238Z,57.2
2023-09-23T05:34:21.036Z,57.1
2023-09-23T05:37:21.035Z,57.5
2023-09-23T05:40:21.065Z,57.0
2023-09-23T05:43:21.153Z,57.7
2023-09-23T05:46:21.045Z,55.6
2023-09-23T05:49:21.248Z,57.9
2023-09-23T05:52:21.003Z,55.1
2023-09-23T05:55:21.127Z,56.3
2023-09-23T05:58:21.057Z,56.5
2023-09-23T06:01:21.619Z,54.2
2023-09-23T06:04:21.706Z,55.8
2023-09-23T06:07:21.138Z,55.1
2023-09-23T06:10:21.112Z,55.8
2023-09-23T06:13:21.017Z,54.4
2023-09-23T06:16:21.246Z,55.7
2023-09-23T06:19:21.323Z,55.3
2023-09-23T06:22:21.052Z,53.2
2023-09-23T06:25:21.151Z,53.8
2023-09-23T06:28:21.060Z,54.0
2023-09-23T06:31:21.586Z,55.3
2023-09-23T06:34:21.134Z,56.4
2023-09-23T06:37:20.981Z,53.7
2023-09-23T06:40:21.082Z,52.8
2023-09-23T06:43:20.936Z,54.7
2023-09-23T06:46:21.150Z,54.6
2023-09-23T06:49:21.107Z,53.7
2023-09-23T06:52:21.098Z,53.6
2023-09-23T06:55:21.276Z,53.7
2023-09-23T06:58:21.044Z,55.0
2023-09-23T07:01:21.170Z,53.9
2023-09-23T07:04:21.881Z,52.1
2023-09-23T07:07:21.030Z,52.2
2023-09-23T07:10:21.145Z,52.7
2023-09-23T07:13:21.092Z,52.9
2023-09-23T07:16:21.151Z,54.3
2023-09-23T07:19:24.505Z,53.3
2023-09-23T07:22:21.066Z,55.4
2023-09-23T07:25:21.087Z,52.6
2023-09-23T07:28:21.085Z,56.5
2023-09-23T07:31:23.414Z,55.1
2023-09-23T07:34:21.466Z,53.6
2023-09-23T07:37:21.072Z,54.9
2023-09-23T07:40:20.870Z,55.7
2023-09-23T07:43:20.899Z,52.6
2023-09-23T07:46:21.030Z,51.6
2023-09-23T07:49:21.861Z,49.4
2023-09-23T07:52:20.876Z,51.3
2023-09-23T07:55:20.890Z,51.9
2023-09-23T07:58:20.914Z,51.7
2023-09-23T08:01:20.948Z,51.3
2023-09-23T08:04:21.453Z,51.3
2023-09-23T08:07:20.901Z,49.9
2023-09-23T08:10:20.968Z,49.4
2023-09-23T08:13:22.926Z,48.9
2023-09-23T08:16:21.215Z,48.7
2023-09-23T08:19:20.967Z,48.9
2023-09-23T08:22:20.906Z,48.3
2023-09-23T08:25:20.899Z,47.8
2023-09-23T08:28:20.968Z,47.3
2023-09-23T08:31:20.896Z,46.9
2023-09-23T08:34:21.716Z,47.1
2023-09-23T08:37:20.889Z,47.8
2023-09-23T08:40:21.019Z,48.0
2023-09-23T08:43:20.926Z,47.6
2023-09-23T08:46:21.173Z,47.4
2023-09-23T08:49:21.518Z,47.0
2023-09-23T08:52:20.840Z,46.7
2023-09-23T08:55:20.891Z,46.4
2023-09-23T08:58:20.973Z,46.8
2023-09-23T09:01:21.072Z,47.0
2023-09-23T09:04:21.036Z,47.5
2023-09-23T09:07:21.138Z,48.0
2023-09-23T09:10:21.138Z,49.3
2023-09-23T09:13:21.044Z,51.0
2023-09-23T09:16:21.000Z,51.0
2023-09-23T09:19:20.981Z,50.0
2023-09-23T09:22:20.921Z,51.0
2023-09-23T09:25:20.896Z,51.3
2023-09-23T09:28:20.896Z,51.4
2023-09-23T09:31:33.283Z,51.5
2023-09-23T09:34:21.166Z,51.4
2023-09-23T09:37:20.927Z,51.3
2023-09-23T09:40:20.951Z,51.2
2023-09-23T09:43:21.740Z,51.2
2023-09-23T09:46:20.908Z,51.8
2023-09-23T09:49:21.426Z,51.8
2023-09-23T09:52:20.900Z,51.9
2023-09-23T09:55:20.908Z,51.9
2023-09-23T09:58:21.052Z,51.9
2023-09-23T10:01:21.442Z,52.6
2023-09-23T10:04:21.766Z,52.8
2023-09-23T10:07:20.947Z,53.1
2023-09-23T10:10:21.036Z,52.8
2023-09-23T10:13:21.090Z,52.4
2023-09-23T10:16:21.065Z,52.1
2023-09-23T10:19:22.071Z,52.1
2023-09-23T10:22:20.939Z,52.2
2023-09-23T10:25:21.173Z,52.1
2023-09-23T10:28:20.952Z,51.5
2023-09-23T10:31:21.304Z,49.9
2023-09-23T10:34:21.203Z,49.4
2023-09-23T10:37:21.029Z,49.6
2023-09-23T10:40:21.135Z,48.7
2023-09-23T10:43:21.149Z,48.3
2023-09-23T10:46:21.080Z,48.0
2023-09-23T10:49:21.569Z,47.3
2023-09-23T10:52:21.047Z,46.2
2023-09-23T10:55:21.332Z,45.7
2023-09-23T10:58:21.064Z,45.4
2023-09-23T11:01:21.165Z,44.5
2023-09-23T11:04:22.202Z,44.4
2023-09-23T11:07:20.984Z,44.4
2023-09-23T11:10:21.102Z,44.9
2023-09-23T11:13:21.076Z,45.0
2023-09-23T11:16:21.135Z,44.9
2023-09-23T11:19:21.771Z,44.4
2023-09-23T11:22:20.999Z,44.9
2023-09-23T11:25:21.108Z,45.0
2023-09-23T11:28:21.167Z,45.5
2023-09-23T11:31:21.081Z,45.7
2023-09-23T11:34:21.121Z,45.6
2023-09-23T11:37:21.001Z,44.9
2023-09-23T11:40:21.222Z,44.4
2023-09-23T11:43:20.998Z,44.2
2023-09-23T11:46:21.249Z,43.6
2023-09-23T11:49:21.263Z,43.4
2023-09-23T11:52:21.232Z,42.7
2023-09-23T11:55:21.269Z,42.6
2023-09-23T11:58:21.065Z,41.9
2023-09-23T12:01:21.197Z,41.5
2023-09-23T12:04:21.696Z,41.2
2023-09-23T12:07:21.047Z,52.8
2023-09-23T12:10:21.045Z,54.6
2023-09-23T12:13:21.619Z,55.2
2023-09-23T12:16:21.626Z,54.7
2023-09-23T12:19:21.477Z,54.0
2023-09-23T12:22:20.998Z,53.2
2023-09-23T12:25:21.225Z,52.7
2023-09-23T12:28:21.064Z,51.5
2023-09-23T12:31:21.105Z,51.4
2023-09-23T12:34:21.283Z,52.7
2023-09-23T12:37:21.041Z,51.7
2023-09-23T12:40:21.090Z,51.8
2023-09-23T12:43:20.997Z,51.6
2023-09-23T12:46:23.765Z,51.9
2023-09-23T12:49:21.592Z,52.3
2023-09-23T12:52:20.978Z,53.2
2023-09-23T12:55:21.084Z,53.2
2023-09-23T12:58:20.984Z,52.2
2023-09-23T13:01:22.560Z,51.7
2023-09-23T13:04:21.917Z,51.7
2023-09-23T13:07:21.115Z,48.5
2023-09-23T13:10:21.042Z,47.1
2023-09-23T13:13:21.053Z,46.9
2023-09-23T13:16:21.478Z,46.9
2023-09-23T13:19:21.592Z,46.9
2023-09-23T13:22:21.165Z,44.3
2023-09-23T13:25:21.184Z,42.8
2023-09-23T13:28:21.028Z,44.3
2023-09-23T13:31:21.222Z,47.3
2023-09-23T13:34:23.404Z,46.6
2023-09-23T13:37:21.410Z,44.9
2023-09-23T13:40:21.012Z,44.7
2023-09-23T13:43:21.078Z,44.8
2023-09-23T13:46:21.235Z,44.1
2023-09-23T13:49:21.698Z,44.5
2023-09-23T13:52:21.035Z,44.7
2023-09-23T13:55:20.963Z,43.7
2023-09-23T13:58:21.056Z,44.4
2023-09-23T14:01:21.307Z,43.4
2023-09-23T14:04:21.330Z,42.3
2023-09-23T14:07:21.013Z,40.3
2023-09-23T14:10:33.884Z,39.7
2023-09-23T14:13:21.061Z,39.4
2023-09-23T14:16:21.193Z,39.1
2023-09-23T14:19:21.658Z,38.8
2023-09-23T14:22:21.031Z,35.5
2023-09-23T14:25:21.199Z,35.9
2023-09-23T14:28:20.980Z,35.6
2023-09-23T14:31:21.406Z,35.6
2023-09-23T14:34:21.335Z,35.3
2023-09-23T14:37:21.152Z,35.3
2023-09-23T14:40:21.107Z,37.9
2023-09-23T14:43:21.073Z,41.7
2023-09-23T14:46:21.606Z,51.7
2023-09-23T14:49:21.562Z,40.0
2023-09-23T14:52:21.021Z,41.0
2023-09-23T14:55:22.671Z,39.7
2023-09-23T14:58:21.066Z,40.6
2023-09-23T15:01:24.065Z,40.3
2023-09-23T15:04:22.283Z,40.4
2023-09-23T15:07:21.202Z,41.8
2023-09-23T15:10:22.508Z,41.6
2023-09-23T15:13:21.093Z,40.1
2023-09-23T15:16:21.148Z,38.9
2023-09-23T15:19:21.538Z,38.1
2023-09-23T15:22:21.024Z,37.8
2023-09-23T15:25:21.013Z,36.2
2023-09-23T15:28:21.027Z,36.1
2023-09-23T15:31:21.297Z,36.5
2023-09-23T15:34:21.624Z,37.0
2023-09-23T15:37:21.021Z,36.9
2023-09-23T15:40:23.546Z,42.1
2023-09-23T15:43:21.026Z,43.8
2023-09-23T15:46:21.276Z,47.2
2023-09-23T15:49:21.467Z,48.0
2023-09-23T15:52:21.150Z,45.6
2023-09-23T15:55:21.035Z,47.2
2023-09-23T15:58:21.073Z,47.4
2023-09-23T16:01:21.225Z,45.4
2023-09-23T16:04:23.330Z,45.0
2023-09-23T16:07:21.031Z,45.1
2023-09-23T16:10:21.018Z,42.9
2023-09-23T16:13:21.097Z,41.2
2023-09-23T16:16:21.869Z,41.7
2023-09-23T16:19:22.838Z,41.6
2023-09-23T16:22:21.374Z,49.2
2023-09-23T16:25:21.447Z,66.4
2023-09-23T16:28:21.038Z,58.5
2023-09-23T16:31:21.661Z,49.1
2023-09-23T16:34:21.365Z,49.2
2023-09-23T16:37:21.238Z,47.8
2023-09-23T16:40:21.127Z,47.5
2023-09-23T16:43:21.295Z,48.8
2023-09-23T16:46:21.368Z,52.2
2023-09-23T16:49:21.824Z,90.6
2023-09-23T16:52:21.215Z,121.3
2023-09-23T16:55:21.273Z,116.2
2023-09-23T16:58:21.210Z,67.3
2023-09-23T17:01:21.575Z,70.1
2023-09-23T17:04:21.940Z,57.0
2023-09-23T17:07:21.269Z,53.9
2023-09-23T17:10:21.374Z,54.5
2023-09-23T17:13:21.283Z,53.0
2023-09-23T17:16:21.220Z,52.7
2023-09-23T17:19:21.966Z,52.7
2023-09-23T17:22:21.223Z,52.3
2023-09-23T17:25:21.294Z,52.0
2023-09-23T17:28:21.216Z,52.7
2023-09-23T17:31:21.452Z,52.9
2023-09-23T17:34:21.706Z,52.8
2023-09-23T17:37:21.101Z,52.4
2023-09-23T17:40:21.107Z,54.8
2023-09-23T17:43:21.218Z,52.7
2023-09-23T17:46:21.481Z,52.8
2023-09-23T17:49:21.445Z,53.1
2023-09-23T17:52:21.158Z,53.3
2023-09-23T17:55:21.208Z,53.3
2023-09-23T17:58:23.254Z,53.3
2023-09-23T18:01:21.843Z,53.4
2023-09-23T18:04:23.413Z,53.4
2023-09-23T18:07:21.211Z,53.4
2023-09-23T18:10:21.221Z,54.4
2023-09-23T18:13:21.349Z,54.7
2023-09-23T18:16:21.332Z,54.4
2023-09-23T18:19:21.609Z,54.2
2023-09-23T18:22:21.185Z,54.1
2023-09-23T18:25:21.664Z,54.0
2023-09-23T18:28:23.183Z,53.8
2023-09-23T18:31:21.702Z,53.6
2023-09-23T18:34:21.995Z,53.5
2023-09-23T18:37:21.555Z,53.4
2023-09-23T18:40:21.247Z,53.3
2023-09-23T18:43:21.248Z,53.4
2023-09-23T18:46:21.543Z,53.4
2023-09-23T18:49:35.493Z,53.6
2023-09-23T18:52:21.266Z,54.5
2023-09-23T18:55:21.350Z,54.5
2023-09-23T18:58:21.322Z,54.2
2023-09-23T19:01:21.713Z,54.1
2023-09-23T19:04:22.466Z,54.0
2023-09-23T19:07:22.168Z,53.5
2023-09-23T19:10:21.219Z,52.7
2023-09-23T19:13:21.091Z,51.3
2023-09-23T19:16:21.562Z,48.9
2023-09-23T19:19:21.595Z,48.0
2023-09-23T19:22:21.173Z,44.0
2023-09-23T19:25:21.144Z,38.7
2023-09-23T19:28:21.318Z,35.4
2023-09-23T19:31:21.388Z,33.4
2023-09-23T19:34:21.719Z,31.9
2023-09-23T19:37:21.730Z,31.2
2023-09-23T19:40:21.747Z,29.8
2023-09-23T19:43:21.091Z,29.3
2023-09-23T19:46:21.653Z,29.5
2023-09-23T19:49:22.012Z,28.7
2023-09-23T19:52:21.107Z,28.2
2023-09-23T19:55:20.982Z,28.5
2023-09-23T19:58:21.055Z,28.8
2023-09-23T20:01:23.571Z,29.6
2023-09-23T20:04:21.786Z,29.9
2023-09-23T20:07:21.107Z,30.1
2023-09-23T20:10:21.340Z,33.6
2023-09-23T20:13:21.170Z,38.4
2023-09-23T20:16:21.152Z,37.7
2023-09-23T20:19:21.493Z,37.5
2023-09-23T20:22:21.064Z,36.9
2023-09-23T20:25:21.121Z,37.5
2023-09-23T20:28:21.260Z,37.6
2023-09-23T20:31:29.010Z,38.2
2023-09-23T20:34:21.676Z,38.8
2023-09-23T20:37:21.177Z,38.6
2023-09-23T20:40:23.415Z,39.3
2023-09-23T20:43:21.070Z,39.5
2023-09-23T20:46:21.141Z,39.7
2023-09-23T20:49:21.258Z,40.4
2023-09-23T20:52:21.106Z,41.5
2023-09-23T20:55:21.095Z,42.4
2023-09-23T20:58:21.013Z,43.2
2023-09-23T21:01:21.082Z,42.8
2023-09-23T21:04:23.167Z,42.5
2023-09-23T21:07:22.138Z,43.1
2023-09-23T21:10:21.220Z,43.7
2023-09-23T21:13:21.054Z,43.6
2023-09-23T21:16:21.201Z,44.5
2023-09-23T21:19:21.389Z,45.3
2023-09-23T21:22:21.069Z,46.4
2023-09-23T21:25:21.137Z,47.5
2023-09-23T21:28:20.998Z,48.7
2023-09-23T21:31:21.207Z,49.2
2023-09-23T21:34:21.943Z,49.2
2023-09-23T21:37:21.150Z,51.0
2023-09-23T21:40:21.070Z,51.6
2023-09-23T21:43:20.991Z,51.8
2023-09-23T21:46:21.290Z,51.9
2023-09-23T21:49:21.276Z,52.0
2023-09-23T21:52:21.001Z,52.5
2023-09-23T21:55:21.108Z,52.6
2023-09-23T21:58:24.602Z,52.3
2023-09-23T22:01:21.325Z,52.0
2023-09-23T22:04:22.854Z,51.7
2023-09-23T22:07:21.150Z,51.5
2023-09-23T22:10:21.024Z,51.6
2023-09-23T22:13:20.941Z,51.3
2023-09-23T22:16:21.087Z,51.3
2023-09-23T22:19:21.337Z,51.5
2023-09-23T22:22:21.050Z,51.7
2023-09-23T22:25:21.123Z,51.5
2023-09-23T22:28:21.092Z,51.6
2023-09-23T22:31:21.236Z,51.8
2023-09-23T22:34:21.861Z,52.2
2023-09-23T22:37:21.055Z,52.7
2023-09-23T22:40:30.951Z,53.6
2023-09-23T22:43:20.926Z,54.0
2023-09-23T22:46:31.323Z,53.9
2023-09-23T22:49:21.444Z,53.9
2023-09-23T22:52:21.024Z,53.9
2023-09-23T22:55:21.135Z,53.9
2023-09-23T22:58:21.015Z,53.8
2023-09-23T23:01:22.084Z,53.8
2023-09-23T23:04:21.945Z,56.2
2023-09-23T23:07:23.775Z,55.4
2023-09-23T23:10:21.329Z,55.1
2023-09-23T23:13:24.589Z,55.0
2023-09-23T23:16:21.374Z,54.9
2023-09-23T23:19:21.381Z,54.9
2023-09-23T23:22:21.277Z,55.2
2023-09-23T23:25:21.243Z,55.2
2023-09-23T23:28:21.071Z,55.1
2023-09-23T23:31:22.221Z,55.3
2023-09-23T23:34:21.893Z,55.4
2023-09-23T23:37:21.187Z,55.5
2023-09-23T23:40:21.307Z,55.7
2023-09-23T23:43:21.033Z,55.6
2023-09-23T23:46:21.439Z,55.4
2023-09-23T23:49:22.031Z,55.4
2023-09-23T23:52:21.309Z,55.4
2023-09-23T23:55:21.509Z,55.4
2023-09-23T23:58:21.469Z,55.5
